createdAt,value
2018-02-09T00:02:03.236Z,66.80
2018-02-09T00:04:32.189Z,80.82
2018-02-09T00:07:01.007Z,91.53
2018-02-09T00:09:29.809Z,79.80
2018-02-09T00:11:58.673Z,66.97
2018-02-09T00:14:27.549Z,79.97
2018-02-09T00:16:56.377Z,73.25
2018-02-09T00:19:25.193Z,71.72
2018-02-09T00:21:54.057Z,80.40
2018-02-09T00:24:22.883Z,70.72
2018-02-09T00:26:51.713Z,72.10
2018-02-09T00:29:20.528Z,81.85
2018-02-09T00:31:49.464Z,79.95
2018-02-09T00:34:18.285Z,84.13
2018-02-09T00:36:47.092Z,76.00
2018-02-09T00:39:15.964Z,75.90
2018-02-09T00:41:44.772Z,78.87
2018-02-09T00:44:13.632Z,71.40
2018-02-09T00:46:42.534Z,78.00
2018-02-09T00:49:11.353Z,82.93
2018-02-09T00:51:40.193Z,60.03
2018-02-09T00:54:09.023Z,73.47
2018-02-09T00:56:37.844Z,74.78
2018-02-09T00:59:06.670Z,71.53
2018-02-09T01:01:35.504Z,67.57
2018-02-09T01:04:04.312Z,82.72
2018-02-09T01:06:33.225Z,89.10
2018-02-09T01:09:02.118Z,125.68
2018-02-09T01:11:30.960Z,53.75
2018-02-09T01:13:59.813Z,73.40
2018-02-09T01:16:28.647Z,109.95
2018-02-09T01:18:57.477Z,104.43
2018-02-09T01:21:26.297Z,108.30
2018-02-09T01:23:55.144Z,75.45
2018-02-09T01:26:23.974Z,54.13
2018-02-09T01:28:52.821Z,62.33
2018-02-09T01:31:21.625Z,89.32
2018-02-09T01:33:50.460Z,63.47
2018-02-09T01:36:19.316Z,77.82
2018-02-09T01:38:48.266Z,95.43
2018-02-09T01:41:17.160Z,66.55
2018-02-09T01:43:45.986Z,76.15
2018-02-09T01:46:14.885Z,71.03
2018-02-09T01:48:43.697Z,78.28
2018-02-09T01:51:12.770Z,78.12
2018-02-09T01:53:41.604Z,76.03
2018-02-09T01:56:10.432Z,74.43
2018-02-09T01:58:39.268Z,75.68
2018-02-09T02:01:08.076Z,84.45
2018-02-09T02:03:36.919Z,74.60
2018-02-09T02:06:05.744Z,81.87
2018-02-09T02:08:34.596Z,93.28
2018-02-09T02:11:03.408Z,85.53
2018-02-09T02:13:32.245Z,90.72
2018-02-09T02:16:01.130Z,82.60
2018-02-09T02:18:29.932Z,74.90
2018-02-09T02:20:58.806Z,84.00
2018-02-09T02:23:27.614Z,81.05
2018-02-09T02:25:56.460Z,85.68
2018-02-09T02:28:25.289Z,131.20
2018-02-09T02:30:54.098Z,94.03
2018-02-09T02:33:22.933Z,88.95
2018-02-09T02:35:51.851Z,99.65
2018-02-09T02:38:20.705Z,65.45
2018-02-09T02:40:49.505Z,71.05
2018-02-09T02:43:18.404Z,75.93
2018-02-09T02:45:47.160Z,81.00
2018-02-09T02:48:16.005Z,80.15
2018-02-09T02:50:44.826Z,87.50
2018-02-09T02:53:13.637Z,81.28
2018-02-09T02:55:42.475Z,80.38
2018-02-09T02:58:11.313Z,84.10
2018-02-09T03:00:40.156Z,81.53
2018-02-09T03:03:09.005Z,82.32
2018-02-09T03:05:37.823Z,76.53
2018-02-09T03:08:06.628Z,74.28
2018-02-09T03:10:35.461Z,74.12
2018-02-09T03:13:04.275Z,101.80
2018-02-09T03:15:33.185Z,77.93
2018-02-09T03:18:02.000Z,81.55
2018-02-09T03:20:30.835Z,81.28
2018-02-09T03:22:59.662Z,77.40
2018-02-09T03:25:28.477Z,67.25
2018-02-09T03:27:57.322Z,63.28
2018-02-09T03:30:26.133Z,79.62
2018-02-09T03:32:54.963Z,71.55
2018-02-09T03:35:23.797Z,58.40
2018-02-09T03:37:52.607Z,61.70
2018-02-09T03:40:21.438Z,77.10
2018-02-09T03:42:50.265Z,83.10
2018-02-09T03:45:19.122Z,85.82
2018-02-09T03:47:47.942Z,61.80
2018-02-09T03:50:16.806Z,85.30
2018-02-09T03:52:45.613Z,91.63
2018-02-09T03:55:14.418Z,68.37
2018-02-09T03:57:43.253Z,86.80
2018-02-09T04:00:12.070Z,72.95
2018-02-09T04:02:40.908Z,68.68
2018-02-09T04:05:09.720Z,77.03
2018-02-09T04:07:38.597Z,71.22
2018-02-09T04:10:07.396Z,93.80
2018-02-09T04:12:36.221Z,81.97
2018-02-09T04:15:05.154Z,68.97
2018-02-09T04:17:33.972Z,81.47
2018-02-09T04:20:02.835Z,78.53
2018-02-09T04:22:31.642Z,83.00
2018-02-09T04:25:00.526Z,96.50
2018-02-09T04:27:29.323Z,105.25
2018-02-09T04:29:58.161Z,72.07
2018-02-09T04:32:26.986Z,78.12
2018-02-09T04:34:55.825Z,61.70
2018-02-09T04:37:24.644Z,65.97
2018-02-09T04:39:53.608Z,80.78
2018-02-09T04:42:22.438Z,88.72
2018-02-09T04:44:51.280Z,59.13
2018-02-09T04:47:20.122Z,89.50
2018-02-09T04:49:48.935Z,81.47
2018-02-09T04:52:17.768Z,77.18
2018-02-09T04:54:46.595Z,78.78
2018-02-09T04:57:15.463Z,76.00
2018-02-09T04:59:44.301Z,80.20
2018-02-09T05:02:13.146Z,71.55
2018-02-09T05:04:41.963Z,83.03
2018-02-09T05:07:10.781Z,79.70
2018-02-09T05:09:39.676Z,72.70
2018-02-09T05:12:08.485Z,89.15
2018-02-09T05:14:37.320Z,71.53
2018-02-09T05:17:06.126Z,67.07
2018-02-09T05:19:34.965Z,63.80
2018-02-09T05:22:03.778Z,81.55
2018-02-09T05:24:32.663Z,75.53
2018-02-09T05:27:01.483Z,71.32
2018-02-09T05:29:30.385Z,77.82
2018-02-09T05:31:59.204Z,76.62
2018-02-09T05:34:28.012Z,72.60
2018-02-09T05:36:57.109Z,75.80
2018-02-09T05:39:25.952Z,65.57
2018-02-09T05:41:54.804Z,68.50
2018-02-09T05:44:23.674Z,73.25
2018-02-09T05:46:52.547Z,74.62
2018-02-09T05:49:21.363Z,62.65
2018-02-09T05:51:50.179Z,73.47
2018-02-09T05:54:19.012Z,63.75
2018-02-09T05:56:47.841Z,92.70
2018-02-09T05:59:16.707Z,73.45
2018-02-09T06:01:45.600Z,69.43
2018-02-09T06:04:14.498Z,74.95
2018-02-09T06:06:43.305Z,72.60
2018-02-09T06:09:12.157Z,55.22
2018-02-09T06:11:41.293Z,80.12
2018-02-09T06:14:10.133Z,66.40
2018-02-09T06:16:38.943Z,69.25
2018-02-09T06:19:07.757Z,79.70
2018-02-09T06:21:36.600Z,76.70
2018-02-09T06:24:05.416Z,78.62
2018-02-09T06:26:34.348Z,67.43
2018-02-09T06:29:03.188Z,70.05
2018-02-09T06:31:32.053Z,71.47
2018-02-09T06:34:00.872Z,50.40
2018-02-09T06:36:29.666Z,82.00
2018-02-09T06:38:58.504Z,66.50
2018-02-09T06:41:27.364Z,68.30
2018-02-09T06:43:56.180Z,61.72
2018-02-09T06:46:24.996Z,58.92
2018-02-09T06:48:53.830Z,79.18
2018-02-09T06:51:22.631Z,78.75
2018-02-09T06:53:51.497Z,72.95
2018-02-09T06:56:20.369Z,71.07
2018-02-09T06:58:49.204Z,74.00
2018-02-09T07:01:18.028Z,59.45
2018-02-09T07:03:46.883Z,62.50
2018-02-09T07:06:15.708Z,59.60
2018-02-09T07:08:44.543Z,69.30
2018-02-09T07:11:13.387Z,69.32
2018-02-09T07:13:42.299Z,62.53
2018-02-09T07:16:11.150Z,61.45
2018-02-09T07:18:39.985Z,63.53
2018-02-09T07:21:08.823Z,75.05
2018-02-09T07:23:37.655Z,67.28
2018-02-09T07:26:06.461Z,60.15
2018-02-09T07:28:35.303Z,63.80
2018-02-09T07:31:04.137Z,63.53
2018-02-09T07:33:32.994Z,68.32
2018-02-09T07:36:01.863Z,69.60
2018-02-09T07:38:30.672Z,66.05
2018-02-09T07:40:59.528Z,66.93
2018-02-09T07:43:28.381Z,61.42
2018-02-09T07:45:57.217Z,70.10
2018-02-09T07:48:26.030Z,67.00
2018-02-09T07:50:54.916Z,62.75
2018-02-09T07:53:23.732Z,76.43
2018-02-09T07:55:52.576Z,67.43
2018-02-09T07:58:21.435Z,59.05
2018-02-09T08:00:50.294Z,74.87
2018-02-09T08:03:19.182Z,71.62
2018-02-09T08:05:47.994Z,68.75
2018-02-09T08:08:16.819Z,63.60
2018-02-09T08:10:45.647Z,80.65
2018-02-09T08:13:14.473Z,64.93
2018-02-09T08:15:43.296Z,68.78
2018-02-09T08:18:12.157Z,69.28
2018-02-09T08:20:40.988Z,52.70
2018-02-09T08:23:09.825Z,58.42
2018-02-09T08:25:38.692Z,53.85
2018-02-09T08:28:07.518Z,54.13
2018-02-09T08:30:36.386Z,55.47
2018-02-09T08:33:05.209Z,49.90
2018-02-09T08:35:34.030Z,50.28
2018-02-09T08:38:02.893Z,50.45
2018-02-09T08:40:31.716Z,46.33
2018-02-09T08:43:00.594Z,51.03
2018-02-09T08:45:29.432Z,42.60
2018-02-09T08:47:58.327Z,45.25
2018-02-09T08:50:27.209Z,44.97
2018-02-09T08:52:56.041Z,45.65
2018-02-09T08:55:24.853Z,40.85
2018-02-09T08:57:53.799Z,47.92
2018-02-09T09:00:22.621Z,41.30
2018-02-09T09:02:51.438Z,46.03
2018-02-09T09:05:20.291Z,46.88
2018-02-09T09:07:49.091Z,51.45
2018-02-09T09:10:18.810Z,45.15
2018-02-09T09:12:47.710Z,42.72
2018-02-09T09:15:16.581Z,47.90
2018-02-09T09:17:45.392Z,47.85
2018-02-09T09:20:14.228Z,50.10
2018-02-09T09:22:43.066Z,46.72
2018-02-09T09:25:11.899Z,45.63
2018-02-09T09:27:40.852Z,48.10
2018-02-09T09:30:09.655Z,42.62
2018-02-09T09:32:38.496Z,47.65
2018-02-09T09:35:07.315Z,43.40
2018-02-09T09:37:36.188Z,44.17
2018-02-09T09:40:04.995Z,51.83
2018-02-09T09:42:33.852Z,52.13
2018-02-09T09:45:02.705Z,49.97
2018-02-09T09:47:31.534Z,52.10
2018-02-09T09:50:00.362Z,52.58
2018-02-09T09:52:29.203Z,52.78
2018-02-09T09:54:58.032Z,50.08
2018-02-09T09:57:26.882Z,58.25
2018-02-09T09:59:55.775Z,57.88
2018-02-09T10:02:30.552Z,59.25
2018-02-09T10:04:59.629Z,56.50
2018-02-09T10:07:28.523Z,55.80
2018-02-09T10:09:57.378Z,53.58
2018-02-09T10:12:26.269Z,54.15
2018-02-09T10:14:55.091Z,56.35
2018-02-09T10:17:23.970Z,51.20
2018-02-09T10:19:52.789Z,50.03
2018-02-09T10:22:21.708Z,55.63
2018-02-09T10:24:50.777Z,52.53
2018-02-09T10:27:19.744Z,55.10
2018-02-09T10:29:48.577Z,57.62
2018-02-09T10:32:17.405Z,54.45
2018-02-09T10:34:46.264Z,48.87
2018-02-09T10:37:15.105Z,55.65
2018-02-09T10:39:43.986Z,55.12
2018-02-09T10:42:12.809Z,56.28
2018-02-09T10:44:41.657Z,52.47
2018-02-09T10:47:10.510Z,44.22
2018-02-09T10:49:39.337Z,48.13
2018-02-09T10:52:08.265Z,51.50
2018-02-09T10:54:37.067Z,44.13
2018-02-09T10:57:05.900Z,55.30
2018-02-09T10:59:34.724Z,46.28
2018-02-09T11:02:03.582Z,52.62
2018-02-09T11:04:32.402Z,50.88
2018-02-09T11:07:01.269Z,53.63
2018-02-09T11:09:31.038Z,53.53
2018-02-09T11:12:01.847Z,51.05
2018-02-09T11:14:30.664Z,52.60
2018-02-09T11:16:59.491Z,53.78
2018-02-09T11:19:28.372Z,58.22
2018-02-09T11:21:57.208Z,49.28
2018-02-09T11:24:26.101Z,46.63
2018-02-09T11:26:55.410Z,44.72
2018-02-09T11:29:24.258Z,50.72
2018-02-09T11:31:53.150Z,51.05
2018-02-09T11:34:21.993Z,46.17
2018-02-09T11:36:50.812Z,48.78
2018-02-09T11:39:19.685Z,48.10
2018-02-09T11:41:48.502Z,53.67
2018-02-09T11:44:17.330Z,42.35
2018-02-09T11:46:46.182Z,54.13
2018-02-09T11:49:14.994Z,50.17
2018-02-09T11:51:43.847Z,46.90
2018-02-09T11:54:12.709Z,58.22
2018-02-09T11:56:41.568Z,47.83
2018-02-09T11:59:10.387Z,52.35
2018-02-09T12:01:39.241Z,50.58
2018-02-09T12:04:08.073Z,47.30
2018-02-09T12:06:36.940Z,45.45
2018-02-09T12:09:05.836Z,50.78
2018-02-09T12:11:34.666Z,46.35
2018-02-09T12:14:03.515Z,51.67
2018-02-09T12:16:32.357Z,43.03
2018-02-09T12:19:01.197Z,46.15
2018-02-09T12:21:30.054Z,49.75
2018-02-09T12:23:58.901Z,45.67
2018-02-09T12:26:27.741Z,40.30
2018-02-09T12:28:56.564Z,41.63
2018-02-09T12:31:25.433Z,50.12
2018-02-09T12:33:54.264Z,43.80
2018-02-09T12:36:23.129Z,44.53
2018-02-09T12:38:51.920Z,44.78
2018-02-09T12:41:20.780Z,43.25
2018-02-09T12:43:49.665Z,42.55
2018-02-09T12:46:18.531Z,45.55
2018-02-09T12:48:47.384Z,50.60
2018-02-09T12:51:16.196Z,45.88
2018-02-09T12:53:45.061Z,50.28
2018-02-09T12:56:13.872Z,45.83
2018-02-09T12:58:42.772Z,45.95
2018-02-09T13:01:11.584Z,47.00
2018-02-09T13:03:40.488Z,51.35
2018-02-09T13:06:09.321Z,42.30
2018-02-09T13:08:38.194Z,43.80
2018-02-09T13:11:07.036Z,46.70
2018-02-09T13:13:35.951Z,45.65
2018-02-09T13:16:04.786Z,45.42
2018-02-09T13:18:39.458Z,45.00
2018-02-09T13:21:08.502Z,41.03
2018-02-09T13:23:43.277Z,50.05
2018-02-09T13:26:12.144Z,44.90
2018-02-09T13:28:46.861Z,47.05
2018-02-09T13:31:15.682Z,50.47
2018-02-09T13:33:44.494Z,46.75
2018-02-09T13:36:15.181Z,55.15
2018-02-09T13:38:44.028Z,47.25
2018-02-09T13:41:12.848Z,51.78
2018-02-09T13:43:41.727Z,48.67
2018-02-09T13:46:10.534Z,53.95
2018-02-09T13:48:39.388Z,49.55
2018-02-09T13:51:08.261Z,48.45
2018-02-09T13:53:37.114Z,49.50
2018-02-09T13:56:05.938Z,45.28
2018-02-09T13:58:34.811Z,51.50
2018-02-09T14:01:03.630Z,46.50
2018-02-09T14:03:32.477Z,49.75
2018-02-09T14:06:01.294Z,58.85
2018-02-09T14:08:30.132Z,54.95
2018-02-09T14:10:58.973Z,48.22
2018-02-09T14:13:27.849Z,50.95
2018-02-09T14:15:56.693Z,52.42
2018-02-09T14:18:25.527Z,49.90
2018-02-09T14:20:54.361Z,48.67
2018-02-09T14:23:23.201Z,44.58
2018-02-09T14:25:52.052Z,47.17
2018-02-09T14:28:20.929Z,48.53
2018-02-09T14:30:49.967Z,54.25
2018-02-09T14:33:18.809Z,52.72
2018-02-09T14:35:47.630Z,49.83
2018-02-09T14:38:16.602Z,51.20
2018-02-09T14:40:45.412Z,72.87
2018-02-09T14:43:14.285Z,52.95
2018-02-09T14:45:43.140Z,51.70
2018-02-09T14:48:12.087Z,59.08
2018-02-09T14:50:40.925Z,49.78
2018-02-09T14:53:09.810Z,49.60
2018-02-09T14:55:38.635Z,50.25
2018-02-09T14:58:07.450Z,45.55
2018-02-09T15:00:36.502Z,49.58
2018-02-09T15:03:05.388Z,56.03
2018-02-09T15:05:34.256Z,58.20
2018-02-09T15:08:03.065Z,53.40
2018-02-09T15:10:31.913Z,48.42
2018-02-09T15:13:00.842Z,50.28
2018-02-09T15:15:29.687Z,53.72
2018-02-09T15:17:58.573Z,46.88
2018-02-09T15:20:28.211Z,56.37
2018-02-09T15:22:57.072Z,55.25
2018-02-09T15:25:26.029Z,52.33
2018-02-09T15:27:54.930Z,51.03
2018-02-09T15:30:23.779Z,45.70
2018-02-09T15:32:52.645Z,49.65
2018-02-09T15:35:21.449Z,46.30
2018-02-09T15:37:50.318Z,49.38
2018-02-09T15:40:19.257Z,50.75
2018-02-09T15:42:48.134Z,50.45
2018-02-09T15:45:16.987Z,52.55
2018-02-09T15:47:45.865Z,54.38
2018-02-09T15:50:14.733Z,49.85
2018-02-09T15:52:43.589Z,50.50
2018-02-09T15:55:12.434Z,52.25
2018-02-09T15:57:41.366Z,51.60
2018-02-09T16:00:10.178Z,48.83
2018-02-09T16:02:39.005Z,45.55
2018-02-09T16:05:07.895Z,38.83
2018-02-09T16:07:36.733Z,53.67
2018-02-09T16:10:05.562Z,46.75
2018-02-09T16:12:34.470Z,43.10
2018-02-09T16:15:03.280Z,49.90
2018-02-09T16:17:32.117Z,44.13
2018-02-09T16:20:00.969Z,43.17
2018-02-09T16:22:29.808Z,53.22
2018-02-09T16:24:58.637Z,51.40
2018-02-09T16:27:27.476Z,51.67
2018-02-09T16:29:56.300Z,53.47
2018-02-09T16:32:25.155Z,48.60
2018-02-09T16:34:53.978Z,41.80
2018-02-09T16:37:22.859Z,47.20
2018-02-09T16:39:51.698Z,47.25
2018-02-09T16:42:20.505Z,51.00
2018-02-09T16:44:49.383Z,47.88
2018-02-09T16:47:18.215Z,49.50
2018-02-09T16:49:47.098Z,40.08
2018-02-09T16:52:15.976Z,47.92
2018-02-09T16:54:44.894Z,49.75
2018-02-09T16:57:13.805Z,38.42
2018-02-09T16:59:42.644Z,50.12
2018-02-09T17:02:11.548Z,48.05
2018-02-09T17:04:40.368Z,55.15
2018-02-09T17:07:09.264Z,51.20
2018-02-09T17:09:38.102Z,48.35
2018-02-09T17:12:07.028Z,49.30
2018-02-09T17:14:35.882Z,48.78
2018-02-09T17:17:04.724Z,47.40
2018-02-09T17:19:33.570Z,48.28
2018-02-09T17:22:02.448Z,64.00
2018-02-09T17:24:31.352Z,47.33
2018-02-09T17:27:00.299Z,46.17
2018-02-09T17:29:29.184Z,42.90
2018-02-09T17:31:58.022Z,53.05
2018-02-09T17:34:26.879Z,50.67
2018-02-09T17:36:55.690Z,49.90
2018-02-09T17:39:24.585Z,46.05
2018-02-09T17:41:53.393Z,40.97
2018-02-09T17:44:22.253Z,52.35
2018-02-09T17:46:51.114Z,48.45
2018-02-09T17:49:19.933Z,49.08
2018-02-09T17:51:48.769Z,52.88
2018-02-09T17:54:17.596Z,47.33
2018-02-09T17:56:46.455Z,47.80
2018-02-09T17:59:15.293Z,42.35
2018-02-09T18:01:44.193Z,48.25
2018-02-09T18:04:13.001Z,52.17
2018-02-09T18:06:41.841Z,54.40
2018-02-09T18:09:10.702Z,56.25
2018-02-09T18:11:39.569Z,52.47
2018-02-09T18:14:08.428Z,49.33
2018-02-09T18:16:37.268Z,71.37
2018-02-09T18:19:06.148Z,53.20
2018-02-09T18:21:35.015Z,49.13
2018-02-09T18:24:03.841Z,52.72
2018-02-09T18:26:32.739Z,53.17
2018-02-09T18:29:01.576Z,60.88
2018-02-09T18:31:30.413Z,55.42
2018-02-09T18:33:59.343Z,63.38
2018-02-09T18:36:28.188Z,42.25
2018-02-09T18:38:57.050Z,86.32
2018-02-09T18:41:25.925Z,67.30
2018-02-09T18:43:54.833Z,60.80
2018-02-09T18:46:23.696Z,53.90
2018-02-09T18:48:52.569Z,53.15
2018-02-09T18:51:21.411Z,56.92
2018-02-09T18:53:50.327Z,59.88
2018-02-09T18:56:19.206Z,45.33
2018-02-09T18:58:48.045Z,49.95
2018-02-09T19:01:16.965Z,58.87
2018-02-09T19:03:45.812Z,53.50
2018-02-09T19:06:14.674Z,40.00
2018-02-09T19:08:43.518Z,53.97
2018-02-09T19:11:12.398Z,46.10
2018-02-09T19:13:41.237Z,49.40
2018-02-09T19:16:10.110Z,47.42
2018-02-09T19:18:38.925Z,52.88
2018-02-09T19:21:07.748Z,50.00
2018-02-09T19:23:36.657Z,54.95
2018-02-09T19:26:05.487Z,47.75
2018-02-09T19:28:34.326Z,43.05
2018-02-09T19:31:03.175Z,55.47
2018-02-09T19:33:32.018Z,54.33
2018-02-09T19:36:00.843Z,58.83
2018-02-09T19:38:29.678Z,59.40
2018-02-09T19:40:58.539Z,53.25
2018-02-09T19:43:27.379Z,56.05
2018-02-09T19:45:56.231Z,57.88
2018-02-09T19:48:25.050Z,58.47
2018-02-09T19:50:53.910Z,53.13
2018-02-09T19:53:22.727Z,52.72
2018-02-09T19:55:51.580Z,50.45
2018-02-09T19:58:20.386Z,57.75
2018-02-09T20:00:49.223Z,51.05
2018-02-09T20:03:18.103Z,56.30
2018-02-09T20:05:46.978Z,57.92
2018-02-09T20:08:15.934Z,55.75
2018-02-09T20:10:44.782Z,62.80
2018-02-09T20:13:13.657Z,59.13
2018-02-09T20:15:42.511Z,55.12
2018-02-09T20:18:11.373Z,58.50
2018-02-09T20:20:40.199Z,49.83
2018-02-09T20:23:09.053Z,60.83
2018-02-09T20:25:37.911Z,64.05
2018-02-09T20:28:06.863Z,55.28
2018-02-09T20:30:35.770Z,57.40
2018-02-09T20:33:04.628Z,62.50
2018-02-09T20:35:33.475Z,56.85
2018-02-09T20:38:02.315Z,60.65
2018-02-09T20:40:31.162Z,53.60
2018-02-09T20:43:00.117Z,59.40
2018-02-09T20:45:28.965Z,56.67
2018-02-09T20:47:57.813Z,55.47
2018-02-09T20:50:26.706Z,58.20
2018-02-09T20:52:55.530Z,58.13
2018-02-09T20:55:24.384Z,57.90
2018-02-09T20:57:53.267Z,70.30
2018-02-09T21:00:22.203Z,62.50
2018-02-09T21:02:51.058Z,69.60
2018-02-09T21:05:19.910Z,59.42
2018-02-09T21:07:48.725Z,60.80
2018-02-09T21:10:17.598Z,52.03
2018-02-09T21:12:46.455Z,50.25
2018-02-09T21:15:15.346Z,56.47
2018-02-09T21:17:44.198Z,58.08
2018-02-09T21:20:13.056Z,55.75
2018-02-09T21:22:41.905Z,57.10
2018-02-09T21:25:10.738Z,56.50
2018-02-09T21:27:39.624Z,56.42
2018-02-09T21:30:08.476Z,45.12
2018-02-09T21:32:37.312Z,41.00
2018-02-09T21:35:06.855Z,52.00
2018-02-09T21:37:35.685Z,45.10
2018-02-09T21:40:04.554Z,52.20
2018-02-09T21:42:33.376Z,58.38
2018-02-09T21:45:02.234Z,47.50
2018-02-09T21:47:31.127Z,40.55
2018-02-09T21:49:59.990Z,51.78
2018-02-09T21:52:28.831Z,55.65
2018-02-09T21:54:57.684Z,40.63
2018-02-09T21:57:26.535Z,52.53
2018-02-09T21:59:55.372Z,49.95
2018-02-09T22:02:24.268Z,53.60
2018-02-09T22:04:53.113Z,81.03
2018-02-09T22:07:22.003Z,76.65
2018-02-09T22:09:50.832Z,63.63
2018-02-09T22:12:19.728Z,67.47
2018-02-09T22:14:48.973Z,58.00
2018-02-09T22:17:17.813Z,77.47
2018-02-09T22:19:46.657Z,69.10
2018-02-09T22:22:15.491Z,58.90
2018-02-09T22:24:44.337Z,85.05
2018-02-09T22:27:13.171Z,70.72
2018-02-09T22:29:41.999Z,60.83
2018-02-09T22:32:10.975Z,59.00
2018-02-09T22:34:39.836Z,53.22
2018-02-09T22:37:08.695Z,55.88
2018-02-09T22:39:37.861Z,64.37
2018-02-09T22:42:06.737Z,60.35
2018-02-09T22:44:35.586Z,53.90
2018-02-09T22:47:04.433Z,60.67
2018-02-09T22:49:33.463Z,60.40
2018-02-09T22:52:02.269Z,56.83
2018-02-09T22:54:31.139Z,61.28
2018-02-09T22:56:59.982Z,55.12
2018-02-09T22:59:28.821Z,59.58
2018-02-09T23:01:57.661Z,68.95
2018-02-09T23:04:26.626Z,59.45
2018-02-09T23:06:55.517Z,63.00
2018-02-09T23:09:24.349Z,57.03
2018-02-09T23:11:53.181Z,66.85
2018-02-09T23:14:22.029Z,62.17
2018-02-09T23:16:50.863Z,54.40
2018-02-09T23:19:19.880Z,68.68
2018-02-09T23:21:48.686Z,71.78
2018-02-09T23:24:17.586Z,62.30
2018-02-09T23:26:46.439Z,64.72
2018-02-09T23:29:15.287Z,63.13
2018-02-09T23:31:44.129Z,63.20
2018-02-09T23:34:13.022Z,58.10
2018-02-09T23:36:41.844Z,57.45
2018-02-09T23:39:10.661Z,61.83
2018-02-09T23:41:39.511Z,58.30
2018-02-09T23:44:08.329Z,55.60
2018-02-09T23:46:37.194Z,53.38
2018-02-09T23:49:06.203Z,57.92
2018-02-09T23:51:35.033Z,54.70
2018-02-09T23:54:03.876Z,54.28
2018-02-09T23:56:32.693Z,44.08
2018-02-09T23:59:01.550Z,55.15
